createdAt,value
2019-02-17T00:00:54.272Z,1014.2
2019-02-17T00:01:56.408Z,1014.2
2019-02-17T00:02:58.634Z,1014.2
2019-02-17T00:04:00.749Z,1014.2
2019-02-17T00:05:02.881Z,1014.3
2019-02-17T00:06:05.403Z,1014.2
2019-02-17T00:07:07.504Z,1014.3
2019-02-17T00:08:09.640Z,1014.2
2019-02-17T00:09:11.756Z,1014.3
2019-02-17T00:10:13.916Z,1014.3
2019-02-17T00:11:16.019Z,1014.3
2019-02-17T00:12:18.159Z,1014.2
2019-02-17T00:13:20.274Z,1014.2
2019-02-17T00:14:24.281Z,1014.3
2019-02-17T00:15:26.429Z,1014.2
2019-02-17T00:16:28.528Z,1014.3
2019-02-17T00:17:30.651Z,1014.2
2019-02-17T00:18:32.801Z,1014.3
2019-02-17T00:19:34.949Z,1014.2
2019-02-17T00:20:37.441Z,1014.3
2019-02-17T00:21:39.564Z,1014.2
2019-02-17T00:22:41.686Z,1014.3
2019-02-17T00:23:43.821Z,1014.3
2019-02-17T00:24:45.955Z,1014.2
2019-02-17T00:25:48.072Z,1014.2
2019-02-17T00:26:50.221Z,1014.2
2019-02-17T00:27:52.370Z,1014.2
2019-02-17T00:29:00.010Z,1014.3
2019-02-17T00:30:02.406Z,1014.2
2019-02-17T00:31:04.541Z,1014.2
2019-02-17T00:32:06.932Z,1014.2
2019-02-17T00:33:09.330Z,1014.3
2019-02-17T00:34:13.657Z,1014.3
2019-02-17T00:35:16.333Z,1014.3
2019-02-17T00:36:18.466Z,1014.3
2019-02-17T00:37:20.609Z,1014.3
2019-02-17T00:38:22.727Z,1014.3
2019-02-17T00:39:24.843Z,1014.3
2019-02-17T00:40:26.969Z,1014.3
2019-02-17T00:41:29.144Z,1014.3
2019-02-17T00:42:31.259Z,1014.3
2019-02-17T00:43:33.393Z,1014.3
2019-02-17T00:44:35.781Z,1014.3
2019-02-17T00:45:37.917Z,1014.3
2019-02-17T00:46:40.035Z,1014.3
2019-02-17T00:47:42.536Z,1014.3
2019-02-17T00:48:45.247Z,1014.3
2019-02-17T00:49:47.352Z,1014.3
2019-02-17T00:50:49.480Z,1014.3
2019-02-17T00:51:51.610Z,1014.3
2019-02-17T00:52:53.735Z,1014.3
2019-02-17T00:53:56.199Z,1014.4
2019-02-17T00:54:58.892Z,1014.4
2019-02-17T00:56:01.010Z,1014.4
2019-02-17T00:57:03.163Z,1014.4
2019-02-17T00:58:05.305Z,1014.4
2019-02-17T00:59:10.693Z,1014.4
2019-02-17T01:00:12.847Z,1014.5
2019-02-17T01:01:15.059Z,1014.5
2019-02-17T01:02:17.195Z,1014.5
2019-02-17T01:03:19.315Z,1014.5
2019-02-17T01:04:21.451Z,1014.5
2019-02-17T01:05:23.558Z,1014.5
2019-02-17T01:06:25.957Z,1014.5
2019-02-17T01:07:28.096Z,1014.5
2019-02-17T01:08:30.495Z,1014.6
2019-02-17T01:09:32.891Z,1014.5
2019-02-17T01:10:35.032Z,1014.6
2019-02-17T01:11:37.210Z,1014.5
2019-02-17T01:12:39.325Z,1014.6
2019-02-17T01:13:41.460Z,1014.5
2019-02-17T01:14:43.568Z,1014.5
2019-02-17T01:15:45.698Z,1014.5
2019-02-17T01:16:47.819Z,1014.5
2019-02-17T01:17:49.955Z,1014.5
2019-02-17T01:18:52.083Z,1014.5
2019-02-17T01:19:54.192Z,1014.5
2019-02-17T01:20:56.643Z,1014.5
2019-02-17T01:21:58.855Z,1014.5
2019-02-17T01:23:00.967Z,1014.5
2019-02-17T01:24:03.428Z,1014.5
2019-02-17T01:25:05.559Z,1014.6
2019-02-17T01:26:07.681Z,1014.6
2019-02-17T01:27:09.779Z,1014.6
2019-02-17T01:28:11.909Z,1014.6
2019-02-17T01:29:21.001Z,1014.6
2019-02-17T01:30:23.122Z,1014.7
2019-02-17T01:31:25.256Z,1014.6
2019-02-17T01:32:27.765Z,1014.7
2019-02-17T01:33:29.894Z,1014.6
2019-02-17T01:34:32.019Z,1014.6
2019-02-17T01:35:34.132Z,1014.6
2019-02-17T01:36:36.239Z,1014.6
2019-02-17T01:37:38.361Z,1014.5
2019-02-17T01:38:40.465Z,1014.6
2019-02-17T01:39:42.578Z,1014.5
2019-02-17T01:40:44.709Z,1014.6
2019-02-17T01:41:46.822Z,1014.6
2019-02-17T01:42:48.922Z,1014.5
2019-02-17T01:43:51.058Z,1014.6
2019-02-17T01:44:53.197Z,1014.6
2019-02-17T01:45:55.620Z,1014.6
2019-02-17T01:46:57.794Z,1014.6
2019-02-17T01:47:59.902Z,1014.6
2019-02-17T01:49:02.312Z,1014.6
2019-02-17T01:50:04.455Z,1014.5
2019-02-17T01:51:06.581Z,1014.5
2019-02-17T01:52:08.679Z,1014.6
2019-02-17T01:53:10.815Z,1014.5
2019-02-17T01:54:12.928Z,1014.5
2019-02-17T01:55:15.038Z,1014.5
2019-02-17T01:56:17.452Z,1014.5
2019-02-17T01:57:19.562Z,1014.5
2019-02-17T01:58:21.726Z,1014.5
2019-02-17T01:59:31.040Z,1014.5
2019-02-17T02:00:33.221Z,1014.5
2019-02-17T02:01:35.612Z,1014.5
2019-02-17T02:02:37.740Z,1014.5
2019-02-17T02:03:39.864Z,1014.5
2019-02-17T02:04:41.959Z,1014.6
2019-02-17T02:05:44.080Z,1014.5
2019-02-17T02:06:46.199Z,1014.6
2019-02-17T02:07:48.607Z,1014.5
2019-02-17T02:08:51.124Z,1014.5
2019-02-17T02:09:53.639Z,1014.5
2019-02-17T02:10:55.749Z,1014.4
2019-02-17T02:11:57.886Z,1014.5
2019-02-17T02:13:00.097Z,1014.5
2019-02-17T02:14:02.201Z,1014.5
2019-02-17T02:15:04.368Z,1014.5
2019-02-17T02:16:06.487Z,1014.4
2019-02-17T02:17:08.585Z,1014.5
2019-02-17T02:18:10.709Z,1014.4
2019-02-17T02:19:12.839Z,1014.5
2019-02-17T02:20:14.944Z,1014.4
2019-02-17T02:21:17.494Z,1014.4
2019-02-17T02:22:19.619Z,1014.4
2019-02-17T02:23:22.042Z,1014.4
2019-02-17T02:24:24.161Z,1014.4
2019-02-17T02:25:26.297Z,1014.4
2019-02-17T02:26:28.401Z,1014.4
2019-02-17T02:27:30.906Z,1014.4
2019-02-17T02:28:33.041Z,1014.4
2019-02-17T02:29:41.609Z,1014.4
2019-02-17T02:30:44.059Z,1014.4
2019-02-17T02:31:46.469Z,1014.4
2019-02-17T02:32:48.633Z,1014.4
2019-02-17T02:33:50.738Z,1014.4
2019-02-17T02:34:53.305Z,1014.4
2019-02-17T02:35:55.435Z,1014.4
2019-02-17T02:36:57.866Z,1014.3
2019-02-17T02:38:00.562Z,1014.3
2019-02-17T02:39:02.741Z,1014.3
2019-02-17T02:40:05.152Z,1014.3
2019-02-17T02:41:07.577Z,1014.3
2019-02-17T02:42:09.732Z,1014.3
2019-02-17T02:43:11.875Z,1014.2
2019-02-17T02:44:14.303Z,1014.2
2019-02-17T02:45:16.726Z,1014.3
2019-02-17T02:46:18.860Z,1014.3
2019-02-17T02:47:21.113Z,1014.3
2019-02-17T02:48:23.261Z,1014.3
2019-02-17T02:49:25.704Z,1014.3
2019-02-17T02:50:27.807Z,1014.2
2019-02-17T02:51:30.229Z,1014.3
2019-02-17T02:52:32.357Z,1014.3
2019-02-17T02:53:34.538Z,1014.2
2019-02-17T02:54:36.682Z,1014.2
2019-02-17T02:55:38.798Z,1014.2
2019-02-17T02:56:41.215Z,1014.2
2019-02-17T02:57:43.324Z,1014.2
2019-02-17T02:58:45.468Z,1014.2
2019-02-17T02:59:52.880Z,1014.2
2019-02-17T03:00:55.346Z,1014.3
2019-02-17T03:01:57.794Z,1014.3
2019-02-17T03:02:59.902Z,1014.3
2019-02-17T03:04:02.054Z,1014.3
2019-02-17T03:05:04.216Z,1014.3
2019-02-17T03:06:06.340Z,1014.3
2019-02-17T03:07:08.454Z,1014.3
2019-02-17T03:08:10.604Z,1014.3
2019-02-17T03:09:12.718Z,1014.3
2019-02-17T03:10:14.831Z,1014.2
2019-02-17T03:11:16.984Z,1014.3
2019-02-17T03:12:19.103Z,1014.3
2019-02-17T03:13:21.222Z,1014.2
2019-02-17T03:14:23.394Z,1014.2
2019-02-17T03:15:25.533Z,1014.2
2019-02-17T03:16:27.665Z,1014.2
2019-02-17T03:17:29.807Z,1014.2
2019-02-17T03:18:32.959Z,1014.2
2019-02-17T03:19:35.480Z,1014.2
2019-02-17T03:20:37.609Z,1014.2
2019-02-17T03:21:39.827Z,1014.2
2019-02-17T03:22:41.968Z,1014.2
2019-02-17T03:23:44.082Z,1014.2
2019-02-17T03:24:46.603Z,1014.2
2019-02-17T03:25:49.158Z,1014.3
2019-02-17T03:26:51.567Z,1014.2
2019-02-17T03:27:54.121Z,1014.3
2019-02-17T03:28:56.231Z,1014.2
2019-02-17T03:30:06.264Z,1014.2
2019-02-17T03:31:09.183Z,1014.3
2019-02-17T03:32:12.047Z,1014.3
2019-02-17T03:33:14.450Z,1014.3
2019-02-17T03:34:16.887Z,1014.3
2019-02-17T03:35:19.304Z,1014.3
2019-02-17T03:36:21.746Z,1014.3
2019-02-17T03:37:24.182Z,1014.3
2019-02-17T03:38:26.699Z,1014.3
2019-02-17T03:39:28.821Z,1014.3
2019-02-17T03:40:30.999Z,1014.3
2019-02-17T03:41:33.131Z,1014.3
2019-02-17T03:42:35.278Z,1014.3
2019-02-17T03:43:37.392Z,1014.3
2019-02-17T03:44:39.828Z,1014.3
2019-02-17T03:45:41.947Z,1014.4
2019-02-17T03:46:44.381Z,1014.3
2019-02-17T03:47:46.510Z,1014.3
2019-02-17T03:48:48.921Z,1014.3
2019-02-17T03:49:51.048Z,1014.4
2019-02-17T03:50:53.835Z,1014.3
2019-02-17T03:51:55.984Z,1014.3
2019-02-17T03:52:58.115Z,1014.3
2019-02-17T03:54:00.232Z,1014.4
2019-02-17T03:55:03.017Z,1014.3
2019-02-17T03:56:05.460Z,1014.3
2019-02-17T03:57:07.869Z,1014.3
2019-02-17T03:58:10.286Z,1014.3
2019-02-17T03:59:12.708Z,1014.4
2019-02-17T04:00:17.753Z,1014.4
2019-02-17T04:01:19.953Z,1014.4
2019-02-17T04:02:22.070Z,1014.4
2019-02-17T04:03:24.199Z,1014.4
2019-02-17T04:04:26.322Z,1014.4
2019-02-17T04:05:28.606Z,1014.4
2019-02-17T04:06:30.724Z,1014.3
2019-02-17T04:07:32.855Z,1014.3
2019-02-17T04:08:34.997Z,1014.3
2019-02-17T04:09:37.138Z,1014.3
2019-02-17T04:10:39.282Z,1014.3
2019-02-17T04:11:41.428Z,1014.4
2019-02-17T04:12:43.853Z,1014.3
2019-02-17T04:13:45.963Z,1014.4
2019-02-17T04:14:48.094Z,1014.3
2019-02-17T04:15:50.789Z,1014.3
2019-02-17T04:16:52.908Z,1014.3
2019-02-17T04:17:55.055Z,1014.3
2019-02-17T04:18:57.552Z,1014.3
2019-02-17T04:19:59.702Z,1014.3
2019-02-17T04:21:02.034Z,1014.3
2019-02-17T04:22:04.172Z,1014.3
2019-02-17T04:23:06.275Z,1014.3
2019-02-17T04:24:08.793Z,1014.3
2019-02-17T04:25:10.927Z,1014.3
2019-02-17T04:26:13.064Z,1014.2
2019-02-17T04:27:15.236Z,1014.3
2019-02-17T04:28:17.435Z,1014.2
2019-02-17T04:29:19.544Z,1014.2
2019-02-17T04:30:30.012Z,1014.3
2019-02-17T04:31:32.183Z,1014.3
2019-02-17T04:32:34.369Z,1014.2
2019-02-17T04:33:36.517Z,1014.2
2019-02-17T04:34:38.632Z,1014.2
2019-02-17T04:35:41.152Z,1014.2
2019-02-17T04:36:43.287Z,1014.2
2019-02-17T04:37:45.421Z,1014.2
2019-02-17T04:38:47.534Z,1014.3
2019-02-17T04:39:49.674Z,1014.3
2019-02-17T04:40:52.105Z,1014.3
2019-02-17T04:41:54.616Z,1014.3
2019-02-17T04:42:57.113Z,1014.3
2019-02-17T04:43:59.230Z,1014.3
2019-02-17T04:45:01.935Z,1014.3
2019-02-17T04:46:04.068Z,1014.3
2019-02-17T04:47:06.585Z,1014.3
2019-02-17T04:48:08.694Z,1014.3
2019-02-17T04:49:11.216Z,1014.3
2019-02-17T04:50:13.356Z,1014.3
2019-02-17T04:51:15.474Z,1014.3
2019-02-17T04:52:17.899Z,1014.3
2019-02-17T04:53:20.099Z,1014.3
2019-02-17T04:54:22.500Z,1014.3
2019-02-17T04:55:24.631Z,1014.3
2019-02-17T04:56:27.048Z,1014.3
2019-02-17T04:57:29.174Z,1014.3
2019-02-17T04:58:31.697Z,1014.3
2019-02-17T04:59:33.847Z,1014.3
2019-02-17T05:00:40.845Z,1014.3
2019-02-17T05:01:43.531Z,1014.3
2019-02-17T05:02:45.946Z,1014.3
2019-02-17T05:03:48.442Z,1014.3
2019-02-17T05:04:50.575Z,1014.3
2019-02-17T05:05:53.168Z,1014.3
2019-02-17T05:06:55.305Z,1014.3
2019-02-17T05:07:57.422Z,1014.3
2019-02-17T05:08:59.617Z,1014.2
2019-02-17T05:10:01.758Z,1014.2
2019-02-17T05:11:03.925Z,1014.2
2019-02-17T05:12:06.043Z,1014.2
2019-02-17T05:13:08.210Z,1014.2
2019-02-17T05:14:10.681Z,1014.2
2019-02-17T05:15:12.792Z,1014.2
2019-02-17T05:16:15.363Z,1014.2
2019-02-17T05:17:17.765Z,1014.1
2019-02-17T05:18:19.884Z,1014.1
2019-02-17T05:19:22.311Z,1014.2
2019-02-17T05:20:24.452Z,1014.1
2019-02-17T05:21:26.869Z,1014.2
2019-02-17T05:22:29.290Z,1014.1
2019-02-17T05:23:31.442Z,1014.1
2019-02-17T05:24:34.030Z,1014.2
2019-02-17T05:25:36.185Z,1014.2
2019-02-17T05:26:38.334Z,1014.2
2019-02-17T05:27:40.455Z,1014.1
2019-02-17T05:28:42.576Z,1014.1
2019-02-17T05:29:44.713Z,1014.1
2019-02-17T05:30:53.602Z,1014.2
2019-02-17T05:31:56.087Z,1014.1
2019-02-17T05:32:58.251Z,1014.1
2019-02-17T05:34:01.170Z,1014.2
2019-02-17T05:35:03.311Z,1014.1
2019-02-17T05:36:05.766Z,1014.1
2019-02-17T05:37:07.869Z,1014.2
2019-02-17T05:38:10.309Z,1014.2
2019-02-17T05:39:12.433Z,1014.2
2019-02-17T05:40:14.603Z,1014.2
2019-02-17T05:41:16.759Z,1014.2
2019-02-17T05:42:18.896Z,1014.2
2019-02-17T05:43:21.338Z,1014.2
2019-02-17T05:44:23.867Z,1014.3
2019-02-17T05:45:26.064Z,1014.3
2019-02-17T05:46:28.764Z,1014.3
2019-02-17T05:47:30.898Z,1014.3
2019-02-17T05:48:33.022Z,1014.3
2019-02-17T05:49:35.173Z,1014.2
2019-02-17T05:50:37.346Z,1014.2
2019-02-17T05:51:39.507Z,1014.2
2019-02-17T05:52:41.624Z,1014.3
2019-02-17T05:53:44.049Z,1014.2
2019-02-17T05:54:46.439Z,1014.3
2019-02-17T05:55:51.872Z,1014.3
2019-02-17T05:56:54.009Z,1014.2
2019-02-17T05:57:56.116Z,1014.3
2019-02-17T05:58:58.520Z,1014.3
2019-02-17T06:00:00.928Z,1014.3
2019-02-17T06:01:07.246Z,1014.3
2019-02-17T06:02:09.539Z,1014.3
2019-02-17T06:03:11.670Z,1014.3
2019-02-17T06:04:14.137Z,1014.3
2019-02-17T06:05:16.674Z,1014.3
2019-02-17T06:06:18.803Z,1014.4
2019-02-17T06:07:20.940Z,1014.3
2019-02-17T06:08:23.459Z,1014.3
2019-02-17T06:09:25.612Z,1014.3
2019-02-17T06:10:27.999Z,1014.3
2019-02-17T06:11:30.185Z,1014.4
2019-02-17T06:12:32.396Z,1014.3
2019-02-17T06:13:34.808Z,1014.3
2019-02-17T06:14:36.958Z,1014.3
2019-02-17T06:15:39.809Z,1014.3
2019-02-17T06:16:41.927Z,1014.3
2019-02-17T06:17:44.044Z,1014.4
2019-02-17T06:18:46.247Z,1014.3
2019-02-17T06:19:48.374Z,1014.3
2019-02-17T06:20:50.498Z,1014.4
2019-02-17T06:21:52.910Z,1014.3
2019-02-17T06:22:55.029Z,1014.3
2019-02-17T06:23:57.141Z,1014.3
2019-02-17T06:24:59.260Z,1014.3
2019-02-17T06:26:01.788Z,1014.3
2019-02-17T06:27:03.934Z,1014.3
2019-02-17T06:28:06.324Z,1014.3
2019-02-17T06:29:09.402Z,1014.3
2019-02-17T06:30:11.830Z,1014.3
2019-02-17T06:31:15.061Z,1014.3
2019-02-17T06:32:17.189Z,1014.3
2019-02-17T06:33:19.970Z,1014.3
2019-02-17T06:34:22.958Z,1014.3
2019-02-17T06:35:25.091Z,1014.3
2019-02-17T06:36:27.210Z,1014.4
2019-02-17T06:37:29.325Z,1014.3
2019-02-17T06:38:31.840Z,1014.3
2019-02-17T06:39:34.266Z,1014.3
2019-02-17T06:40:36.385Z,1014.3
2019-02-17T06:41:38.569Z,1014.3
2019-02-17T06:42:41.478Z,1014.3
2019-02-17T06:43:43.602Z,1014.3
2019-02-17T06:44:46.064Z,1014.3
2019-02-17T06:45:48.192Z,1014.3
2019-02-17T06:46:50.309Z,1014.3
2019-02-17T06:47:52.762Z,1014.3
2019-02-17T06:48:54.876Z,1014.3
2019-02-17T06:49:56.994Z,1014.4
2019-02-17T06:50:59.104Z,1014.3
2019-02-17T06:52:01.304Z,1014.4
2019-02-17T06:53:03.814Z,1014.3
2019-02-17T06:54:06.212Z,1014.4
2019-02-17T06:55:08.343Z,1014.4
2019-02-17T06:56:10.519Z,1014.4
2019-02-17T06:57:12.660Z,1014.5
2019-02-17T06:58:14.777Z,1014.5
2019-02-17T06:59:17.300Z,1014.5
2019-02-17T07:00:19.413Z,1014.5
2019-02-17T07:01:25.248Z,1014.5
2019-02-17T07:02:27.371Z,1014.5
2019-02-17T07:03:29.487Z,1014.5
2019-02-17T07:04:31.718Z,1014.5
2019-02-17T07:05:33.904Z,1014.5
2019-02-17T07:06:36.121Z,1014.5
2019-02-17T07:07:38.351Z,1014.5
2019-02-17T07:08:40.553Z,1014.5
2019-02-17T07:09:42.779Z,1014.5
2019-02-17T07:10:44.903Z,1014.4
2019-02-17T07:11:47.587Z,1014.5
2019-02-17T07:12:50.022Z,1014.5
2019-02-17T07:13:52.450Z,1014.5
2019-02-17T07:14:54.863Z,1014.5
2019-02-17T07:15:56.971Z,1014.5
2019-02-17T07:16:59.102Z,1014.5
2019-02-17T07:18:01.213Z,1014.5
2019-02-17T07:19:03.408Z,1014.5
2019-02-17T07:20:05.555Z,1014.5
2019-02-17T07:21:07.664Z,1014.5
2019-02-17T07:22:10.077Z,1014.5
2019-02-17T07:23:12.198Z,1014.5
2019-02-17T07:24:17.010Z,1014.5
2019-02-17T07:25:30.611Z,1014.6
2019-02-17T07:26:32.825Z,1014.6
2019-02-17T07:27:34.955Z,1014.6
2019-02-17T07:28:37.066Z,1014.7
2019-02-17T07:29:39.247Z,1014.7
2019-02-17T07:30:41.361Z,1014.7
2019-02-17T07:31:43.480Z,1014.7
2019-02-17T07:32:45.596Z,1014.7
2019-02-17T07:33:47.724Z,1014.6
2019-02-17T07:34:50.468Z,1014.7
2019-02-17T07:35:52.606Z,1014.7
2019-02-17T07:36:55.048Z,1014.7
2019-02-17T07:37:57.435Z,1014.7
2019-02-17T07:38:59.559Z,1014.7
2019-02-17T07:40:01.673Z,1014.7
2019-02-17T07:41:04.197Z,1014.8
2019-02-17T07:42:06.320Z,1014.8
2019-02-17T07:43:11.638Z,1014.8
2019-02-17T07:44:13.766Z,1014.8
2019-02-17T07:45:16.227Z,1014.8
2019-02-17T07:46:18.744Z,1014.8
2019-02-17T07:47:20.871Z,1014.8
2019-02-17T07:48:22.985Z,1014.8
2019-02-17T07:49:25.088Z,1014.7
2019-02-17T07:50:27.303Z,1014.7
2019-02-17T07:51:29.418Z,1014.7
2019-02-17T07:52:34.180Z,1014.7
2019-02-17T07:53:36.825Z,1014.6
2019-02-17T07:54:38.927Z,1014.6
2019-02-17T07:55:41.047Z,1014.6
2019-02-17T07:56:43.169Z,1014.6
2019-02-17T07:57:45.295Z,1014.6
2019-02-17T07:58:47.402Z,1014.6
2019-02-17T07:59:49.530Z,1014.6
2019-02-17T08:00:51.644Z,1014.6
2019-02-17T08:01:53.746Z,1014.6
2019-02-17T08:02:55.886Z,1014.6
2019-02-17T08:03:58.076Z,1014.7
2019-02-17T08:05:00.307Z,1014.7
2019-02-17T08:06:02.445Z,1014.6
2019-02-17T08:07:04.642Z,1014.7
2019-02-17T08:08:06.836Z,1014.6
2019-02-17T08:09:08.958Z,1014.7
2019-02-17T08:10:11.087Z,1014.6
2019-02-17T08:11:13.493Z,1014.7
2019-02-17T08:12:15.643Z,1014.7
2019-02-17T08:13:17.759Z,1014.6
2019-02-17T08:14:19.869Z,1014.6
2019-02-17T08:15:22.076Z,1014.6
2019-02-17T08:16:24.210Z,1014.6
2019-02-17T08:17:26.721Z,1014.6
2019-02-17T08:18:28.824Z,1014.5
2019-02-17T08:19:30.939Z,1014.5
2019-02-17T08:20:33.383Z,1014.5
2019-02-17T08:21:38.107Z,1014.5
2019-02-17T08:22:40.512Z,1014.5
2019-02-17T08:23:42.647Z,1014.5
2019-02-17T08:24:44.763Z,1014.5
2019-02-17T08:25:47.158Z,1014.5
2019-02-17T08:26:49.288Z,1014.5
2019-02-17T08:27:51.784Z,1014.5
2019-02-17T08:28:53.929Z,1014.5
2019-02-17T08:29:56.049Z,1014.4
2019-02-17T08:30:58.188Z,1014.5
2019-02-17T08:32:00.287Z,1014.4
2019-02-17T08:33:02.412Z,1014.5
2019-02-17T08:34:04.551Z,1014.4
2019-02-17T08:35:06.666Z,1014.5
2019-02-17T08:36:08.814Z,1014.5
2019-02-17T08:37:10.931Z,1014.5
2019-02-17T08:38:13.099Z,1014.5
2019-02-17T08:39:15.522Z,1014.5
2019-02-17T08:40:17.673Z,1014.5
2019-02-17T08:41:19.786Z,1014.6
2019-02-17T08:42:21.921Z,1014.5
2019-02-17T08:43:24.059Z,1014.6
2019-02-17T08:44:26.574Z,1014.6
2019-02-17T08:45:28.702Z,1014.6
2019-02-17T08:46:30.830Z,1014.6
2019-02-17T08:47:32.937Z,1014.6
2019-02-17T08:48:35.066Z,1014.6
2019-02-17T08:49:37.199Z,1014.6
2019-02-17T08:50:39.341Z,1014.6
2019-02-17T08:51:41.477Z,1014.6
2019-02-17T08:52:43.617Z,1014.6
2019-02-17T08:53:46.017Z,1014.6
2019-02-17T08:54:48.142Z,1014.6
2019-02-17T08:55:50.255Z,1014.6
2019-02-17T08:56:52.398Z,1014.7
2019-02-17T08:57:54.517Z,1014.7
2019-02-17T08:58:56.629Z,1014.7
2019-02-17T08:59:58.854Z,1014.7
2019-02-17T09:01:01.240Z,1014.7
2019-02-17T09:02:06.543Z,1014.7
2019-02-17T09:03:08.676Z,1014.7
2019-02-17T09:04:10.822Z,1014.7
2019-02-17T09:05:13.210Z,1014.7
2019-02-17T09:06:15.446Z,1014.6
2019-02-17T09:07:18.191Z,1014.7
2019-02-17T09:08:20.304Z,1014.6
2019-02-17T09:09:22.447Z,1014.6
2019-02-17T09:10:24.583Z,1014.6
2019-02-17T09:11:26.704Z,1014.7
2019-02-17T09:12:28.824Z,1014.7
2019-02-17T09:13:30.962Z,1014.7
2019-02-17T09:14:33.071Z,1014.7
2019-02-17T09:15:35.213Z,1014.7
2019-02-17T09:16:37.643Z,1014.7
2019-02-17T09:17:39.755Z,1014.7
2019-02-17T09:18:42.181Z,1014.7
2019-02-17T09:19:44.313Z,1014.8
2019-02-17T09:20:46.428Z,1014.8
2019-02-17T09:21:48.578Z,1014.7
2019-02-17T09:22:51.001Z,1014.8
2019-02-17T09:23:53.120Z,1014.8
2019-02-17T09:24:55.552Z,1014.8
2019-02-17T09:25:58.037Z,1014.9
2019-02-17T09:27:00.155Z,1014.8
2019-02-17T09:28:02.282Z,1014.8
2019-02-17T09:29:04.423Z,1014.8
2019-02-17T09:30:06.809Z,1014.8
2019-02-17T09:31:08.941Z,1014.8
2019-02-17T09:32:16.958Z,1014.8
2019-02-17T09:33:19.096Z,1014.8
2019-02-17T09:34:21.609Z,1014.8
2019-02-17T09:35:23.730Z,1014.8
2019-02-17T09:36:25.928Z,1014.8
2019-02-17T09:37:28.044Z,1014.8
2019-02-17T09:38:30.582Z,1014.8
2019-02-17T09:39:32.693Z,1014.8
2019-02-17T09:40:34.817Z,1014.8
2019-02-17T09:41:36.947Z,1014.8
2019-02-17T09:42:39.052Z,1014.8
2019-02-17T09:43:41.530Z,1014.8
2019-02-17T09:44:43.958Z,1014.8
2019-02-17T09:45:46.382Z,1014.8
2019-02-17T09:46:48.536Z,1014.8
2019-02-17T09:47:50.665Z,1014.8
2019-02-17T09:48:52.792Z,1014.8
2019-02-17T09:49:57.342Z,1014.8
2019-02-17T09:50:59.482Z,1014.8
2019-02-17T09:52:01.601Z,1014.8
2019-02-17T09:53:04.140Z,1014.8
2019-02-17T09:54:06.295Z,1014.8
2019-02-17T09:55:08.429Z,1014.8
2019-02-17T09:56:10.540Z,1014.8
2019-02-17T09:57:13.128Z,1014.8
2019-02-17T09:58:15.237Z,1014.8
2019-02-17T09:59:17.440Z,1014.8
2019-02-17T10:00:19.579Z,1014.8
2019-02-17T10:01:21.698Z,1014.8
2019-02-17T10:02:27.038Z,1014.8
2019-02-17T10:03:29.194Z,1014.8
2019-02-17T10:04:31.317Z,1014.8
2019-02-17T10:05:33.434Z,1014.8
2019-02-17T10:06:35.956Z,1014.8
2019-02-17T10:07:38.072Z,1014.8
2019-02-17T10:08:40.590Z,1014.8
2019-02-17T10:09:42.740Z,1014.8
2019-02-17T10:10:44.880Z,1014.9
2019-02-17T10:11:47.297Z,1014.9
2019-02-17T10:12:49.411Z,1014.9
2019-02-17T10:13:51.526Z,1014.9
2019-02-17T10:14:54.658Z,1014.9
2019-02-17T10:15:56.843Z,1014.9
2019-02-17T10:16:59.260Z,1014.9
2019-02-17T10:18:01.387Z,1014.9
2019-02-17T10:19:03.520Z,1014.8
2019-02-17T10:20:05.625Z,1014.8
2019-02-17T10:21:08.047Z,1014.8
2019-02-17T10:22:10.480Z,1014.8
2019-02-17T10:23:12.595Z,1014.8
2019-02-17T10:24:14.737Z,1014.7
2019-02-17T10:25:17.308Z,1014.7
2019-02-17T10:26:19.472Z,1014.8
2019-02-17T10:27:21.611Z,1014.8
2019-02-17T10:28:23.863Z,1014.7
2019-02-17T10:29:25.984Z,1014.7
2019-02-17T10:30:28.115Z,1014.7
2019-02-17T10:31:30.562Z,1014.7
2019-02-17T10:32:39.365Z,1014.7
2019-02-17T10:33:41.884Z,1014.8
2019-02-17T10:34:44.428Z,1014.7
2019-02-17T10:35:46.560Z,1014.7
2019-02-17T10:36:48.710Z,1014.7
2019-02-17T10:37:51.047Z,1014.7
2019-02-17T10:38:53.174Z,1014.7
2019-02-17T10:39:55.477Z,1014.7
2019-02-17T10:40:57.588Z,1014.7
2019-02-17T10:41:59.763Z,1014.7
2019-02-17T10:43:03.965Z,1014.7
2019-02-17T10:44:06.156Z,1014.7
2019-02-17T10:45:08.271Z,1014.7
2019-02-17T10:46:10.435Z,1014.7
2019-02-17T10:47:12.631Z,1014.7
2019-02-17T10:48:14.751Z,1014.6
2019-02-17T10:49:19.543Z,1014.7
2019-02-17T10:50:21.721Z,1014.6
2019-02-17T10:51:23.863Z,1014.6
2019-02-17T10:52:28.712Z,1014.6
2019-02-17T10:53:30.836Z,1014.6
2019-02-17T10:54:32.975Z,1014.6
2019-02-17T10:55:35.106Z,1014.6
2019-02-17T10:56:37.248Z,1014.6
2019-02-17T10:57:39.404Z,1014.5
2019-02-17T10:58:41.624Z,1014.6
2019-02-17T10:59:44.134Z,1014.6
2019-02-17T11:00:46.564Z,1014.5
2019-02-17T11:01:48.706Z,1014.6
2019-02-17T11:02:51.236Z,1014.6
2019-02-17T11:03:53.364Z,1014.5
2019-02-17T11:04:55.482Z,1014.5
2019-02-17T11:05:57.599Z,1014.5
2019-02-17T11:07:00.351Z,1014.5
2019-02-17T11:08:02.784Z,1014.5
2019-02-17T11:09:04.971Z,1014.5
2019-02-17T11:10:07.125Z,1014.5
2019-02-17T11:11:09.314Z,1014.5
2019-02-17T11:12:11.436Z,1014.5
2019-02-17T11:13:13.577Z,1014.5
2019-02-17T11:14:15.989Z,1014.5
2019-02-17T11:15:18.182Z,1014.5
2019-02-17T11:16:20.323Z,1014.5
2019-02-17T11:17:22.881Z,1014.5
2019-02-17T11:18:25.004Z,1014.5
2019-02-17T11:19:27.573Z,1014.4
2019-02-17T11:20:29.731Z,1014.4
2019-02-17T11:21:31.850Z,1014.4
2019-02-17T11:22:34.079Z,1014.4
2019-02-17T11:23:36.192Z,1014.3
2019-02-17T11:24:38.318Z,1014.3
2019-02-17T11:25:40.440Z,1014.3
2019-02-17T11:26:42.888Z,1014.3
2019-02-17T11:27:45.455Z,1014.3
2019-02-17T11:28:47.605Z,1014.3
2019-02-17T11:29:49.913Z,1014.3
2019-02-17T11:30:52.054Z,1014.2
2019-02-17T11:31:54.170Z,1014.2
2019-02-17T11:32:58.555Z,1014.2
2019-02-17T11:34:00.718Z,1014.2
2019-02-17T11:35:03.533Z,1014.3
2019-02-17T11:36:06.047Z,1014.2
2019-02-17T11:37:08.184Z,1014.2
2019-02-17T11:38:10.575Z,1014.2
2019-02-17T11:39:12.717Z,1014.2
2019-02-17T11:40:14.865Z,1014.2
2019-02-17T11:41:17.008Z,1014.1
2019-02-17T11:42:19.144Z,1014.2
2019-02-17T11:43:21.297Z,1014.2
2019-02-17T11:44:24.119Z,1014.2
2019-02-17T11:45:26.246Z,1014.2
2019-02-17T11:46:28.776Z,1014.2
2019-02-17T11:47:30.908Z,1014.2
2019-02-17T11:48:33.110Z,1014.2
2019-02-17T11:49:35.239Z,1014.2
2019-02-17T11:50:37.380Z,1014.2
2019-02-17T11:51:39.899Z,1014.1
2019-02-17T11:52:42.316Z,1014.1
2019-02-17T11:53:44.458Z,1014.1
2019-02-17T11:54:48.295Z,1014.1
2019-02-17T11:55:50.836Z,1014
2019-02-17T11:56:52.964Z,1014
2019-02-17T11:57:55.090Z,1014
2019-02-17T11:58:57.541Z,1014
2019-02-17T11:59:59.695Z,1014
2019-02-17T12:01:02.204Z,1014
2019-02-17T12:02:06.907Z,1014
2019-02-17T12:03:09.153Z,1013.9
2019-02-17T12:04:11.270Z,1014
2019-02-17T12:05:13.713Z,1013.9
2019-02-17T12:06:15.857Z,1013.9
2019-02-17T12:07:17.984Z,1013.9
2019-02-17T12:08:20.406Z,1013.9
2019-02-17T12:09:22.551Z,1013.8
2019-02-17T12:10:24.675Z,1013.8
2019-02-17T12:11:26.825Z,1013.8
2019-02-17T12:12:28.953Z,1013.8
2019-02-17T12:13:31.072Z,1013.8
2019-02-17T12:14:33.202Z,1013.8
2019-02-17T12:15:35.340Z,1013.8
2019-02-17T12:16:37.674Z,1013.8
2019-02-17T12:17:39.809Z,1013.8
2019-02-17T12:18:41.951Z,1013.8
2019-02-17T12:19:44.074Z,1013.8
2019-02-17T12:20:46.222Z,1013.8
2019-02-17T12:21:48.435Z,1013.7
2019-02-17T12:22:50.956Z,1013.7
2019-02-17T12:23:53.675Z,1013.7
2019-02-17T12:24:55.827Z,1013.7
2019-02-17T12:25:57.956Z,1013.7
2019-02-17T12:27:00.095Z,1013.7
2019-02-17T12:28:02.246Z,1013.7
2019-02-17T12:29:04.485Z,1013.7
2019-02-17T12:30:07.592Z,1013.6
2019-02-17T12:31:10.425Z,1013.6
2019-02-17T12:32:12.567Z,1013.6
2019-02-17T12:33:21.705Z,1013.5
2019-02-17T12:34:24.489Z,1013.5
2019-02-17T12:35:26.675Z,1013.5
2019-02-17T12:36:28.803Z,1013.5
2019-02-17T12:37:31.260Z,1013.6
2019-02-17T12:38:33.383Z,1013.6
2019-02-17T12:39:35.520Z,1013.5
2019-02-17T12:40:37.675Z,1013.5
2019-02-17T12:41:39.817Z,1013.5
2019-02-17T12:42:41.941Z,1013.5
2019-02-17T12:43:44.074Z,1013.5
2019-02-17T12:44:46.228Z,1013.5
2019-02-17T12:45:48.881Z,1013.5
2019-02-17T12:46:51.004Z,1013.5
2019-02-17T12:47:58.615Z,1013.4
2019-02-17T12:49:01.047Z,1013.3
2019-02-17T12:50:05.300Z,1013.3
2019-02-17T12:51:07.467Z,1013.3
2019-02-17T12:52:09.673Z,1013.3
2019-02-17T12:53:11.808Z,1013.3
2019-02-17T12:54:14.248Z,1013.3
2019-02-17T12:55:16.375Z,1013.3
2019-02-17T12:56:18.891Z,1013.3
2019-02-17T12:57:21.026Z,1013.3
2019-02-17T12:58:30.436Z,1013.3
2019-02-17T12:59:32.851Z,1013.3
2019-02-17T13:00:34.985Z,1013.2